Time;durP1;ratioP1;P1;durP2;ratioP2;P2;SDS_P1;SDS_P2;PMS_P1;PMS_P2;Temp;Humidity;BMP_temperature;BMP_pressure;BME280_temperature;BME280_humidity;BME280_pressure;Samples;Min_cycle;Max_cycle;Signal;HPM_P1;HPM_P2
2023/11/13 00:02:19;;;;;;;28.23;4.80;;;;;;;9.51;100.00;99146.50;5032354;28;20040;-85
2023/11/13 00:04:45;;;;;;;38.85;6.68;;;;;;;9.53;100.00;99139.47;5032309;28;20476;-86
2023/11/13 00:07:11;;;;;;;42.58;5.28;;;;;;;9.58;100.00;99130.50;5032320;28;20104;-86
2023/11/13 00:09:37;;;;;;;53.40;6.07;;;;;;;9.50;100.00;99121.69;5032012;28;20030;-86
2023/11/13 00:12:03;;;;;;;31.60;5.72;;;;;;;9.55;100.00;99107.53;5032346;28;20026;-86
2023/11/13 00:14:29;;;;;;;42.10;5.75;;;;;;;9.60;100.00;99102.03;5032214;28;20018;-85
2023/11/13 00:16:54;;;;;;;33.53;5.35;;;;;;;9.53;100.00;99098.28;5031571;28;20026;-85
2023/11/13 00:19:19;;;;;;;28.77;4.80;;;;;;;9.60;100.00;99084.00;5032027;28;20076;-86
2023/11/13 00:21:45;;;;;;;50.13;7.22;;;;;;;9.55;100.00;99080.94;5032085;28;20037;-85
2023/11/13 00:24:12;;;;;;;40.83;6.00;;;;;;;9.51;100.00;99079.53;5031920;28;20380;-86
2023/11/13 00:26:38;;;;;;;24.33;4.60;;;;;;;9.49;100.00;99073.69;5030890;28;20025;-86
2023/11/13 00:29:03;;;;;;;31.55;5.25;;;;;;;9.48;100.00;99056.59;5030576;28;20031;-86
2023/11/13 00:31:29;;;;;;;20.35;4.55;;;;;;;9.48;100.00;99062.56;5031440;28;20029;-86
2023/11/13 00:33:54;;;;;;;38.53;5.63;;;;;;;9.49;100.00;99066.78;5031828;28;20029;-86
2023/11/13 00:36:20;;;;;;;35.50;5.43;;;;;;;9.48;100.00;99064.31;5030287;28;20064;-86
2023/11/13 00:38:45;;;;;;;42.50;6.00;;;;;;;9.49;100.00;99065.97;5031829;28;20476;-85
2023/11/13 00:41:11;;;;;;;37.05;5.90;;;;;;;9.54;100.00;99075.00;5051527;28;20087;-86
2023/11/13 00:43:36;;;;;;;40.05;6.20;;;;;;;9.50;100.00;99045.22;5051704;28;20033;-86
2023/11/13 00:46:02;;;;;;;39.60;7.50;;;;;;;9.56;100.00;99006.16;5036396;28;20029;-86
2023/11/13 00:48:27;;;;;;;48.13;8.07;;;;;;;9.73;100.00;99010.00;5031507;28;20099;-86
2023/11/13 00:50:53;;;;;;;37.22;4.80;;;;;;;9.71;100.00;99006.72;5031396;28;20029;-85
2023/11/13 00:53:18;;;;;;;40.05;7.55;;;;;;;9.75;100.00;98995.22;5031627;28;20419;-85
2023/11/13 00:55:43;;;;;;;39.60;5.22;;;;;;;9.73;100.00;98986.81;5031416;28;20356;-85
2023/11/13 00:58:09;;;;;;;30.00;5.75;;;;;;;9.81;100.00;98973.34;5031517;28;20048;-86
2023/11/13 01:00:34;;;;;;;38.35;5.95;;;;;;;9.79;100.00;98970.88;5030963;28;20030;-86
2023/11/13 01:02:59;;;;;;;39.85;6.80;;;;;;;9.85;100.00;98952.38;5031695;28;20490;-86
2023/11/13 01:05:25;;;;;;;37.22;5.72;;;;;;;9.88;100.00;98963.38;5029400;28;20017;-85
2023/11/13 01:07:50;;;;;;;36.83;5.38;;;;;;;9.84;100.00;98962.78;5031406;28;20072;-86
2023/11/13 01:10:16;;;;;;;45.63;5.18;;;;;;;9.94;100.00;98965.47;5032572;28;20026;-86
2023/11/13 01:12:41;;;;;;;35.67;5.53;;;;;;;9.95;100.00;98969.66;5035548;28;20021;-86
2023/11/13 01:15:09;;;;;;;32.10;5.55;;;;;;;9.96;100.00;98972.16;5034928;28;20022;-86
2023/11/13 01:17:35;;;;;;;28.40;4.97;;;;;;;9.94;100.00;98968.84;5035311;28;20037;-87
2023/11/13 01:20:02;;;;;;;33.67;5.30;;;;;;;9.97;100.00;98952.34;5034377;28;20048;-86
2023/11/13 01:22:28;;;;;;;29.33;5.70;;;;;;;9.95;100.00;98941.31;5035087;28;20108;-87
2023/11/13 01:24:54;;;;;;;33.05;5.63;;;;;;;9.91;100.00;98942.53;5034984;28;20113;-87
2023/11/13 01:27:19;;;;;;;31.67;4.30;;;;;;;9.97;100.00;98942.03;5035458;28;20451;-87
2023/11/13 01:29:44;;;;;;;33.75;4.80;;;;;;;10.05;100.00;98929.38;5033195;28;20036;-85
2023/11/13 01:32:10;;;;;;;28.70;4.88;;;;;;;10.07;100.00;98912.84;5034389;28;20051;-86
2023/11/13 01:34:36;;;;;;;30.23;4.53;;;;;;;10.01;100.00;98907.34;5053944;28;20494;-86
2023/11/13 01:37:02;;;;;;;30.88;4.15;;;;;;;10.01;100.00;98899.63;5054771;28;20029;-86
2023/11/13 01:39:27;;;;;;;42.33;5.93;;;;;;;10.02;100.00;98875.47;5054950;28;20052;-86
2023/11/13 01:41:52;;;;;;;27.08;4.38;;;;;;;10.06;100.00;98856.25;5054960;28;20056;-86
2023/11/13 01:44:18;;;;;;;25.30;4.60;;;;;;;10.04;100.00;98840.88;5054854;28;20059;-86
2023/11/13 01:46:43;;;;;;;31.35;4.80;;;;;;;10.01;100.00;98841.13;5054796;28;20111;-86
2023/11/13 01:49:09;;;;;;;28.90;6.00;;;;;;;10.04;100.00;98845.22;5035631;28;20076;-87
2023/11/13 01:51:35;;;;;;;22.23;3.70;;;;;;;10.12;100.00;98835.13;5049307;28;20460;-86
2023/11/13 01:54:01;;;;;;;36.20;6.40;;;;;;;10.06;100.00;98838.19;5034664;28;20109;-86
2023/11/13 01:56:28;;;;;;;26.42;4.57;;;;;;;10.19;100.00;98846.59;5033289;28;20419;-87
2023/11/13 01:58:59;;;;;;;26.30;4.15;;;;;;;10.15;100.00;98841.81;5034560;28;20435;-87
2023/11/13 02:01:25;;;;;;;24.98;4.53;;;;;;;10.02;100.00;98831.63;5034678;28;20075;-86
2023/11/13 02:03:54;;;;;;;26.25;4.50;;;;;;;10.10;100.00;98833.63;5034164;28;20025;-86
2023/11/13 02:06:20;;;;;;;27.85;4.50;;;;;;;10.00;100.00;98818.91;5033651;28;20025;-86
2023/11/13 02:08:46;;;;;;;25.67;3.67;;;;;;;10.08;100.00;98811.34;5033124;28;20033;-86
2023/11/13 02:11:11;;;;;;;31.08;3.40;;;;;;;10.06;100.00;98827.88;5034512;28;20029;-87
2023/11/13 02:13:38;;;;;;;35.75;6.10;;;;;;;10.08;100.00;98823.44;5049860;28;20567;-87
2023/11/13 02:16:06;;;;;;;26.35;3.28;;;;;;;10.03;100.00;98810.91;5034359;28;20025;-87
2023/11/13 02:18:35;;;;;;;26.77;4.03;;;;;;;10.10;100.00;98806.09;5049839;28;20561;-87
2023/11/13 02:21:01;;;;;;;17.98;4.32;;;;;;;10.10;100.00;98782.88;5052830;28;20032;-87
2023/11/13 02:23:27;;;;;;;26.08;4.25;;;;;;;10.17;100.00;98772.84;5054071;28;20019;-87
2023/11/13 02:25:57;;;;;;;26.85;4.38;;;;;;;10.19;100.00;98773.56;5054157;28;20021;-87
2023/11/13 02:28:24;;;;;;;26.58;3.05;;;;;;;10.22;100.00;98768.97;5052858;28;20395;-87
2023/11/13 02:30:49;;;;;;;25.05;3.28;;;;;;;10.27;100.00;98766.84;5052663;28;20036;-86
2023/11/13 02:33:15;;;;;;;26.42;3.67;;;;;;;10.25;100.00;98747.28;5035765;28;20021;-86
2023/11/13 02:35:41;;;;;;;13.98;2.15;;;;;;;10.18;100.00;98749.53;5034166;28;20021;-86
2023/11/13 02:38:06;;;;;;;15.48;3.20;;;;;;;10.20;100.00;98749.44;5033938;28;20075;-86
2023/11/13 02:40:32;;;;;;;9.68;1.75;;;;;;;10.19;100.00;98740.03;5034074;28;20456;-86
2023/11/13 02:42:57;;;;;;;11.93;2.42;;;;;;;10.18;100.00;98723.75;5034160;28;20033;-86
2023/11/13 02:45:26;;;;;;;13.52;1.58;;;;;;;10.30;100.00;98706.47;5032753;28;20045;-86
2023/11/13 02:47:52;;;;;;;8.35;1.42;;;;;;;10.25;100.00;98688.78;5033455;28;20026;-86
2023/11/13 02:50:18;;;;;;;14.40;2.15;;;;;;;10.19;100.00;98694.47;5033654;28;20026;-86
2023/11/13 02:52:43;;;;;;;4.85;1.30;;;;;;;10.18;100.00;98679.94;5032848;28;20032;-86
2023/11/13 02:55:09;;;;;;;10.95;1.42;;;;;;;10.21;100.00;98676.28;5032351;28;20475;-86
2023/11/13 02:57:35;;;;;;;12.75;1.50;;;;;;;10.21;100.00;98679.66;5033749;28;20025;-86
2023/11/13 03:00:00;;;;;;;11.57;1.75;;;;;;;10.17;100.00;98668.00;5033725;28;20055;-86
2023/11/13 03:02:26;;;;;;;13.35;2.45;;;;;;;10.18;100.00;98661.88;5035272;28;20384;-86
2023/11/13 03:04:51;;;;;;;6.38;1.67;;;;;;;10.22;100.00;98650.38;5033758;28;20026;-86
2023/11/13 03:07:17;;;;;;;10.48;1.63;;;;;;;10.15;100.00;98646.69;5033862;28;20044;-86
2023/11/13 03:09:42;;;;;;;12.25;1.30;;;;;;;10.16;100.00;98648.31;5033363;28;20439;-86
2023/11/13 03:12:08;;;;;;;3.85;0.80;;;;;;;10.23;100.00;98628.78;5033045;28;20070;-86
2023/11/13 03:14:33;;;;;;;7.70;0.98;;;;;;;10.34;100.00;98630.50;5031808;28;20021;-86
2023/11/13 03:16:59;;;;;;;6.90;1.00;;;;;;;10.38;100.00;98624.13;5033283;28;20100;-86
2023/11/13 03:19:24;;;;;;;4.03;1.10;;;;;;;10.36;100.00;98614.88;5033230;28;20026;-86
2023/11/13 03:21:49;;;;;;;6.75;0.80;;;;;;;10.36;100.00;98607.97;5033200;28;20486;-86
2023/11/13 03:24:15;;;;;;;5.05;1.00;;;;;;;10.39;100.00;98591.44;5033145;28;20535;-86
2023/11/13 03:26:40;;;;;;;6.20;0.85;;;;;;;10.38;100.00;98589.78;5033149;28;20017;-87
2023/11/13 03:29:06;;;;;;;2.80;0.70;;;;;;;10.43;100.00;98572.16;5032328;28;20033;-87
2023/11/13 03:31:31;;;;;;;6.82;0.68;;;;;;;10.44;100.00;98566.06;5033077;28;20472;-86
2023/11/13 03:33:57;;;;;;;4.00;0.93;;;;;;;10.44;100.00;98569.44;5032197;28;20087;-85
2023/11/13 03:36:22;;;;;;;7.88;1.08;;;;;;;10.41;100.00;98555.97;5031679;28;20387;-86
2023/11/13 03:38:47;;;;;;;3.58;0.88;;;;;;;10.48;100.00;98549.34;5032918;28;20065;-85
2023/11/13 03:41:13;;;;;;;8.23;1.23;;;;;;;10.45;100.00;98531.56;5033026;28;20083;-85
2023/11/13 03:43:38;;;;;;;0.90;0.32;;;;;;;10.48;100.00;98537.28;5032051;28;20033;-85
2023/11/13 03:46:04;;;;;;;4.22;0.45;;;;;;;10.58;100.00;98537.25;5032798;28;20036;-85
2023/11/13 03:48:30;;;;;;;2.55;0.32;;;;;;;10.55;100.00;98519.50;5031402;28;20037;-85
2023/11/13 03:50:55;;;;;;;2.20;0.47;;;;;;;10.54;100.00;98520.44;5032606;28;20064;-85
2023/11/13 03:53:21;;;;;;;1.30;0.40;;;;;;;10.62;100.00;98515.41;5032484;28;20049;-85
2023/11/13 03:55:46;;;;;;;2.97;0.40;;;;;;;10.67;100.00;98515.81;5031261;28;20059;-85
2023/11/13 03:58:12;;;;;;;1.95;0.30;;;;;;;10.74;100.00;98512.72;5031675;28;20091;-85
2023/11/13 04:00:37;;;;;;;0.90;0.20;;;;;;;10.73;100.00;98509.31;5032500;28;20030;-85
2023/11/13 04:03:03;;;;;;;1.25;0.20;;;;;;;10.88;100.00;98494.22;5031132;28;20383;-85
2023/11/13 04:05:29;;;;;;;1.00;0.30;;;;;;;11.05;100.00;98490.94;5032601;28;20021;-85
2023/11/13 04:07:55;;;;;;;1.05;0.10;;;;;;;11.18;100.00;98482.88;5032276;28;20029;-85
2023/11/13 04:10:20;;;;;;;3.58;0.73;;;;;;;11.31;100.00;98475.66;5032289;28;20109;-85
2023/11/13 04:12:47;;;;;;;2.00;0.60;;;;;;;11.39;100.00;98487.88;5031870;28;20539;-85
2023/11/13 04:15:13;;;;;;;3.38;0.80;;;;;;;11.50;100.00;98477.34;5032246;28;20025;-85
2023/11/13 04:17:39;;;;;;;3.60;0.60;;;;;;;11.63;100.00;98465.88;5032129;28;20056;-85
2023/11/13 04:20:12;;;;;;;11.15;0.90;;;;;;;11.72;100.00;98455.47;5032130;28;20483;-85
2023/11/13 04:22:44;;;;;;;5.75;0.90;;;;;;;11.91;100.00;98466.72;5032129;28;20108;-84
2023/11/13 04:25:09;;;;;;;;;;;;;;;12.06;100.00;98464.44;5032579;28;20026;-85
2023/11/13 04:27:35;;;;;;;6.80;0.95;;;;;;;12.05;100.00;98455.06;5031788;28;20007;-85
2023/11/13 04:30:00;;;;;;;9.90;1.20;;;;;;;12.16;100.00;98450.47;5032163;28;20079;-85
2023/11/13 04:32:26;;;;;;;11.55;2.00;;;;;;;12.21;100.00;98458.59;5030827;28;20106;-85
2023/11/13 04:34:52;;;;;;;10.73;1.90;;;;;;;12.29;100.00;98452.72;5030505;28;20021;-85
2023/11/13 04:37:18;;;;;;;15.43;2.33;;;;;;;12.39;100.00;98460.41;5031995;28;20491;-85
2023/11/13 04:39:44;;;;;;;15.32;2.95;;;;;;;12.41;100.00;98438.59;5031936;28;20014;-85
2023/11/13 04:42:09;;;;;;;15.57;2.20;;;;;;;12.38;100.00;98422.53;5031074;28;20167;-85
2023/11/13 04:44:36;;;;;;;13.85;2.28;;;;;;;12.40;100.00;98416.25;5031631;28;20026;-85
2023/11/13 04:47:01;;;;;;;17.73;2.90;;;;;;;12.46;100.00;98419.22;5031966;28;20061;-85
2023/11/13 04:49:27;;;;;;;22.35;3.28;;;;;;;12.45;100.00;98397.69;5031719;28;20088;-85
2023/11/13 04:51:52;;;;;;;16.02;3.10;;;;;;;12.54;100.00;98380.47;5031814;28;20531;-85
2023/11/13 04:54:18;;;;;;;19.63;2.85;;;;;;;12.50;100.00;98377.38;5031638;28;20025;-84
2023/11/13 04:56:43;;;;;;;13.90;2.78;;;;;;;12.55;100.00;98377.72;5031631;28;20359;-85
2023/11/13 04:59:11;;;;;;;15.00;2.72;;;;;;;12.61;100.00;98373.72;5030756;28;20156;-85
2023/11/13 05:01:38;;;;;;;18.90;3.42;;;;;;;12.55;100.00;98362.19;5032242;28;20038;-85
2023/11/13 05:04:05;;;;;;;18.38;2.83;;;;;;;12.61;100.00;98350.44;5030495;28;20019;-85
2023/11/13 05:06:31;;;;;;;16.77;2.95;;;;;;;12.64;100.00;98356.09;5031714;28;20535;-84
2023/11/13 05:08:56;;;;;;;12.55;2.38;;;;;;;12.67;100.00;98354.19;5031565;28;20039;-85
2023/11/13 05:11:23;;;;;;;21.23;4.88;;;;;;;12.76;100.00;98369.63;5031128;28;20025;-85
2023/11/13 05:13:50;;;;;;;19.65;4.50;;;;;;;12.82;100.00;98363.81;5030058;28;20475;-84
2023/11/13 05:16:18;;;;;;;24.40;4.55;;;;;;;12.80;100.00;98368.34;5031578;28;20053;-84
2023/11/13 05:18:43;;;;;;;17.73;4.20;;;;;;;12.77;100.00;98375.59;5031512;28;20079;-85
2023/11/13 05:21:09;;;;;;;21.25;2.92;;;;;;;12.82;100.00;98368.19;5031493;28;20030;-85
2023/11/13 05:23:35;;;;;;;23.90;4.35;;;;;;;12.78;100.00;98372.06;5031317;28;20036;-84
2023/11/13 05:26:01;;;;;;;14.73;3.15;;;;;;;12.85;100.00;98355.75;5031142;28;20116;-84
2023/11/13 05:28:26;;;;;;;14.60;3.40;;;;;;;12.78;100.00;98328.84;5031268;28;20029;-85
2023/11/13 05:30:51;;;;;;;23.60;3.25;;;;;;;12.82;100.00;98324.16;5031335;28;20483;-85
2023/11/13 05:33:17;;;;;;;17.38;3.03;;;;;;;12.79;100.00;98348.59;5030028;28;20476;-85
2023/11/13 05:35:42;;;;;;;22.50;3.70;;;;;;;12.83;100.00;98360.28;5030140;28;20486;-85
2023/11/13 05:38:07;;;;;;;13.18;2.95;;;;;;;12.81;100.00;98331.13;5030206;28;20029;-85
2023/11/13 05:40:33;;;;;;;19.83;3.80;;;;;;;12.85;100.00;98332.47;5031022;28;20017;-85
2023/11/13 05:42:59;;;;;;;15.27;4.55;;;;;;;12.87;100.00;98339.25;5030982;28;20117;-85
2023/11/13 05:45:24;;;;;;;19.88;3.45;;;;;;;12.88;100.00;98327.94;5031375;28;20464;-85
2023/11/13 05:47:51;;;;;;;19.50;3.63;;;;;;;12.83;100.00;98311.09;5029959;28;20033;-84
2023/11/13 05:50:17;;;;;;;18.67;2.78;;;;;;;12.87;100.00;98318.53;5031096;28;20115;-85
2023/11/13 05:52:43;;;;;;;10.50;2.22;;;;;;;12.85;100.00;98306.56;5031287;28;20096;-85
2023/11/13 05:55:09;;;;;;;16.83;2.95;;;;;;;12.88;100.00;98313.22;5031071;28;20500;-85
2023/11/13 05:57:35;;;;;;;8.70;2.05;;;;;;;12.94;100.00;98312.56;5033867;28;20034;-85
2023/11/13 06:00:01;;;;;;;16.20;2.03;;;;;;;12.96;100.00;98313.22;5034829;28;20026;-85
2023/11/13 06:02:26;;;;;;;13.85;2.38;;;;;;;12.95;100.00;98300.44;5034566;28;20613;-84
2023/11/13 06:04:51;;;;;;;13.38;2.63;;;;;;;12.99;100.00;98301.75;5034610;28;20108;-85
2023/11/13 06:07:17;;;;;;;15.15;2.28;;;;;;;12.98;100.00;98288.00;5034692;28;20020;-85
2023/11/13 06:09:43;;;;;;;11.25;2.53;;;;;;;12.98;100.00;98287.19;5033294;28;20037;-84
2023/11/13 06:12:12;;;;;;;19.45;2.50;;;;;;;13.00;100.00;98295.63;5034270;28;20029;-85
2023/11/13 06:14:41;;;;;;;13.05;3.20;;;;;;;12.98;100.00;98294.97;5034237;28;20034;-84
2023/11/13 06:17:06;;;;;;;11.20;2.38;;;;;;;13.02;100.00;98283.31;5034492;28;20027;-84
2023/11/13 06:19:32;;;;;;;11.60;2.17;;;;;;;13.03;100.00;98282.34;5034315;28;20535;-84
2023/11/13 06:21:57;;;;;;;12.60;2.28;;;;;;;13.07;100.00;98283.69;5034186;28;20488;-84
2023/11/13 06:24:22;;;;;;;9.35;1.95;;;;;;;13.09;100.00;98278.31;5034204;28;20037;-84
2023/11/13 06:26:48;;;;;;;10.40;1.98;;;;;;;13.13;100.00;98288.22;5033431;28;20030;-84
2023/11/13 06:29:14;;;;;;;7.95;1.45;;;;;;;13.09;100.00;98286.09;5034142;28;20025;-84
2023/11/13 06:31:39;;;;;;;10.30;1.80;;;;;;;13.11;100.00;98278.97;5032985;28;20031;-84
2023/11/13 06:34:05;;;;;;;12.38;1.70;;;;;;;13.17;100.00;98289.53;5034301;28;20028;-84
2023/11/13 06:36:33;;;;;;;10.02;1.75;;;;;;;13.19;100.00;98287.59;5034084;28;20368;-84
2023/11/13 06:39:00;;;;;;;10.50;1.92;;;;;;;13.17;100.00;98283.53;5034059;28;20037;-84
2023/11/13 06:41:25;;;;;;;10.07;1.65;;;;;;;13.19;100.00;98272.06;5033380;28;20030;-84
2023/11/13 06:43:52;;;;;;;10.85;1.48;;;;;;;13.14;100.00;98279.47;5033773;28;20036;-84
2023/11/13 06:46:17;;;;;;;11.70;1.58;;;;;;;13.18;100.00;98285.97;5034158;28;20105;-84
2023/11/13 06:48:44;;;;;;;10.05;1.85;;;;;;;13.22;100.00;98270.94;5033725;28;20116;-84
2023/11/13 06:51:16;;;;;;;6.78;1.33;;;;;;;13.37;100.00;98258.19;5034147;28;20021;-84
2023/11/13 06:53:42;;;;;;;11.02;1.08;;;;;;;13.31;100.00;98257.03;5030939;28;20504;-84
2023/11/13 06:56:09;;;;;;;7.10;1.48;;;;;;;13.25;100.00;98260.25;5045186;28;20037;-84
2023/11/13 06:58:36;;;;;;;7.10;1.67;;;;;;;13.29;100.00;98251.22;5036392;28;20051;-87
2023/11/13 07:01:02;;;;;;;5.95;1.67;;;;;;;13.33;100.00;98254.28;5033744;28;20021;-87
2023/11/13 07:03:28;;;;;;;8.18;1.10;;;;;;;13.31;100.00;98256.22;5033382;28;20021;-87
2023/11/13 07:05:53;;;;;;;5.65;1.05;;;;;;;13.16;100.00;98246.44;5033531;28;20021;-87
2023/11/13 07:08:19;;;;;;;3.33;1.48;;;;;;;13.17;100.00;98255.06;5033785;28;20384;-84
2023/11/13 07:10:44;;;;;;;4.90;0.90;;;;;;;13.16;100.00;98243.84;5044210;28;20074;-84
2023/11/13 07:13:11;;;;;;;8.70;2.35;;;;;;;13.10;100.00;98235.94;5050928;28;20052;-86
2023/11/13 07:15:39;;;;;;;6.10;0.90;;;;;;;13.07;100.00;98257.78;5043130;28;20025;-86
2023/11/13 07:18:06;;;;;;;2.78;0.73;;;;;;;13.05;100.00;98251.94;5048121;28;20058;-87
2023/11/13 07:20:32;;;;;;;5.30;1.08;;;;;;;13.05;100.00;98255.34;5048738;28;20385;-87
2023/11/13 07:22:58;;;;;;;9.18;1.10;;;;;;;13.09;100.00;98263.59;5031318;28;20115;-86
2023/11/13 07:25:23;;;;;;;4.63;0.90;;;;;;;13.01;100.00;98263.56;5049793;28;20028;-86
2023/11/13 07:27:49;;;;;;;5.75;0.90;;;;;;;13.03;100.00;98272.00;5051899;28;20021;-86
2023/11/13 07:30:14;;;;;;;3.28;0.68;;;;;;;13.06;100.00;98276.84;5050936;28;20056;-86
2023/11/13 07:32:40;;;;;;;3.65;0.80;;;;;;;13.04;100.00;98258.06;5052794;28;20498;-87
2023/11/13 07:35:07;;;;;;;6.22;2.00;;;;;;;13.10;100.00;98269.59;5052814;28;20033;-86
2023/11/13 07:37:33;;;;;;;6.90;0.95;;;;;;;13.10;100.00;98267.00;5052566;28;20505;-87
2023/11/13 07:39:59;;;;;;;8.88;1.95;;;;;;;13.04;100.00;98278.78;5037594;28;20061;-86
2023/11/13 07:42:25;;;;;;;9.25;1.20;;;;;;;13.04;100.00;98279.59;5032858;28;20491;-86
2023/11/13 07:44:50;;;;;;;10.30;1.40;;;;;;;13.04;100.00;98283.97;5032719;28;20021;-86
2023/11/13 07:47:16;;;;;;;7.15;1.30;;;;;;;13.06;100.00;98287.22;5032719;28;20033;-86
2023/11/13 07:49:45;;;;;;;8.80;1.60;;;;;;;13.04;100.00;98289.16;5032693;28;20167;-86
2023/11/13 07:52:15;;;;;;;13.73;1.60;;;;;;;13.11;100.00;98287.56;5032563;28;20021;-87
2023/11/13 07:54:40;;;;;;;13.18;1.60;;;;;;;13.10;100.00;98280.75;5032029;28;20028;-86
2023/11/13 07:57:08;;;;;;;10.05;2.17;;;;;;;12.99;100.00;98299.16;5032395;28;20021;-86
2023/11/13 07:59:34;;;;;;;11.25;1.70;;;;;;;13.07;100.00;98327.69;5032532;28;20025;-86
2023/11/13 08:01:59;;;;;;;13.68;1.90;;;;;;;13.06;100.00;98331.25;5032493;28;20040;-86
2023/11/13 08:04:24;;;;;;;15.85;1.98;;;;;;;13.01;100.00;98320.53;5032234;28;20033;-86
2023/11/13 08:06:50;;;;;;;9.60;1.85;;;;;;;12.99;100.00;98336.22;5032371;28;20029;-86
2023/11/13 08:09:15;;;;;;;13.82;1.85;;;;;;;12.96;100.00;98335.72;5031848;28;20420;-86
2023/11/13 08:11:41;;;;;;;14.25;3.80;;;;;;;12.92;100.00;98326.66;5032426;28;20026;-86
2023/11/13 08:14:09;;;;;;;16.60;2.28;;;;;;;12.94;100.00;98327.31;5032138;28;20028;-86
2023/11/13 08:16:35;;;;;;;13.63;3.40;;;;;;;12.90;100.00;98331.16;5032197;28;20029;-86
2023/11/13 08:19:00;;;;;;;23.52;2.90;;;;;;;12.93;100.00;98339.44;5030496;28;20026;-86
2023/11/13 08:21:26;;;;;;;19.45;3.92;;;;;;;12.96;100.00;98364.22;5032013;28;20013;-86
2023/11/13 08:23:51;;;;;;;19.25;3.45;;;;;;;12.98;100.00;98357.91;5037213;28;20387;-86
2023/11/13 08:26:17;;;;;;;16.00;2.95;;;;;;;12.89;100.00;98358.03;5030991;28;20494;-86
2023/11/13 08:28:44;;;;;;;19.00;3.08;;;;;;;12.72;100.00;98368.28;5030758;28;20056;-86
2023/11/13 08:31:15;;;;;;;30.38;3.85;;;;;;;12.66;100.00;98374.09;5032023;28;20053;-86
2023/11/13 08:33:41;;;;;;;20.33;2.75;;;;;;;12.56;100.00;98369.00;5030680;28;20544;-86
2023/11/13 08:36:11;;;;;;;20.38;3.90;;;;;;;12.55;100.00;98374.31;5032215;28;20033;-86
2023/11/13 08:38:36;;;;;;;21.33;4.40;;;;;;;12.52;100.00;98384.97;5031412;28;20029;-86
2023/11/13 08:41:03;;;;;;;23.40;3.95;;;;;;;12.50;100.00;98394.66;5031817;28;20060;-86
2023/11/13 08:43:31;;;;;;;22.42;4.68;;;;;;;12.52;100.00;98408.28;5030453;28;20435;-86
2023/11/13 08:45:57;;;;;;;28.77;3.58;;;;;;;12.53;100.00;98404.72;5031744;28;20052;-86
2023/11/13 08:48:23;;;;;;;26.73;4.03;;;;;;;12.52;100.00;98418.63;5030341;28;20029;-85
2023/11/13 08:50:49;;;;;;;20.95;4.05;;;;;;;12.67;100.00;98411.94;5030077;28;20035;-86
2023/11/13 08:53:15;;;;;;;25.17;4.53;;;;;;;12.85;100.00;98430.84;5037642;28;20024;-86
2023/11/13 08:55:40;;;;;;;25.83;4.00;;;;;;;12.72;100.00;98445.13;5047778;28;20031;-87
2023/11/13 08:58:07;;;;;;;30.58;5.78;;;;;;;12.51;100.00;98463.56;5031517;28;20022;-87
2023/11/13 09:00:41;;;;;;;36.20;5.43;;;;;;;12.34;100.00;98484.13;5031571;28;20059;-86
2023/11/13 09:03:08;;;;;;;26.92;5.43;;;;;;;11.99;100.00;98480.53;5031461;28;20101;-85
2023/11/13 09:05:34;;;;;;;24.02;5.32;;;;;;;11.79;100.00;98502.25;5030794;28;20452;-85
2023/11/13 09:08:02;;;;;;;24.80;4.10;;;;;;;11.70;100.00;98501.31;5031524;28;20403;-84
2023/11/13 09:10:28;;;;;;;25.48;4.25;;;;;;;11.71;100.00;98482.28;5030793;28;20060;-84
2023/11/13 09:13:00;;;;;;;19.98;3.55;;;;;;;11.65;100.00;98497.53;5031435;28;20025;-85
2023/11/13 09:15:28;;;;;;;22.67;4.07;;;;;;;11.60;100.00;98510.09;5032683;28;20415;-86
2023/11/13 09:17:54;;;;;;;23.20;3.88;;;;;;;11.62;100.00;98503.00;5031327;28;20472;-85
2023/11/13 09:20:21;;;;;;;30.48;4.47;;;;;;;11.62;100.00;98505.59;5030517;28;20467;-85
2023/11/13 09:22:47;;;;;;;25.10;4.45;;;;;;;11.59;100.00;98509.28;5030233;28;20026;-85
2023/11/13 09:25:14;;;;;;;25.38;3.25;;;;;;;11.66;100.00;98522.44;5030404;28;20361;-84
2023/11/13 09:27:52;;;;;;;24.98;3.97;;;;;;;11.89;100.00;98513.38;5040931;28;20037;-84
2023/11/13 09:30:19;;;;;;;23.40;3.47;;;;;;;11.92;100.00;98510.50;5049582;28;20039;-85
2023/11/13 09:32:46;;;;;;;25.67;3.35;;;;;;;12.09;100.00;98513.28;5054784;28;20059;-84
2023/11/13 09:35:23;;;;;;;23.08;5.50;;;;;;;12.20;100.00;98526.81;5050805;28;20108;-84
2023/11/13 09:37:52;;;;;;;21.30;4.13;;;;;;;12.39;100.00;98517.31;5050184;28;20446;-83
2023/11/13 09:40:25;;;;;;;18.35;3.45;;;;;;;12.42;100.00;98517.81;5047107;28;20091;-84
2023/11/13 09:42:54;;;;;;;25.40;3.88;;;;;;;12.41;100.00;98531.75;5033397;28;20040;-85
2023/11/13 09:45:20;;;;;;;22.52;3.30;;;;;;;12.61;100.00;98557.47;5036316;28;20025;-84
2023/11/13 09:47:47;;;;;;;20.63;3.42;;;;;;;12.41;100.00;98536.91;5034752;28;20494;-83
2023/11/13 09:50:16;;;;;;;24.25;4.40;;;;;;;12.20;100.00;98549.28;5033996;28;20064;-84
2023/11/13 09:52:50;;;;;;;23.08;2.78;;;;;;;12.17;100.00;98559.94;5034420;28;20028;-85
2023/11/13 09:55:23;;;;;;;16.25;2.80;;;;;;;12.42;100.00;98546.28;5033539;28;20060;-85
2023/11/13 09:57:53;;;;;;;21.75;3.00;;;;;;;12.43;100.00;98539.34;5044393;28;20047;-85
2023/11/13 10:00:23;;;;;;;23.40;4.25;;;;;;;12.31;100.00;98541.31;5054842;28;20045;-85
2023/11/13 10:02:51;;;;;;;19.60;4.38;;;;;;;12.25;100.00;98544.50;5040679;28;20484;-85
2023/11/13 10:05:17;;;;;;;24.23;3.78;;;;;;;12.36;100.00;98549.47;5032602;28;20037;-84
2023/11/13 10:07:47;;;;;;;22.77;3.38;;;;;;;12.99;100.00;98550.34;5032718;28;20024;-85
2023/11/13 10:10:19;;;;;;;17.80;4.07;;;;;;;13.00;100.00;98572.72;5034237;28;20064;-84
2023/11/13 10:12:45;;;;;;;21.65;3.65;;;;;;;12.40;100.00;98576.66;5038930;28;20041;-84
2023/11/13 10:15:13;;;;;;;25.75;3.22;;;;;;;12.43;100.00;98576.38;5050865;28;20033;-84
2023/11/13 10:17:43;;;;;;;21.45;3.85;;;;;;;12.56;100.00;98575.22;5052121;28;20025;-84
2023/11/13 10:20:10;;;;;;;20.17;3.75;;;;;;;12.48;100.00;98581.09;5035974;28;20033;-85
2023/11/13 10:22:37;;;;;;;17.13;3.00;;;;;;;13.32;100.00;98581.72;5034242;28;20134;-85
2023/11/13 10:25:05;;;;;;;15.43;2.70;;;;;;;12.68;100.00;98574.06;5037690;28;20035;-84
2023/11/13 10:27:32;;;;;;;18.27;3.17;;;;;;;12.45;100.00;98572.84;5053969;28;20013;-86
2023/11/13 10:30:04;;;;;;;22.67;3.20;;;;;;;12.29;100.00;98583.81;5053805;28;20380;-87
2023/11/13 10:32:31;;;;;;;23.30;2.85;;;;;;;12.16;100.00;98578.97;5052528;28;20021;-85
2023/11/13 10:34:57;;;;;;;20.13;4.03;;;;;;;12.07;100.00;98587.59;5052511;28;20057;-84
2023/11/13 10:37:23;;;;;;;22.02;3.30;;;;;;;12.04;100.00;98587.88;5053819;28;20033;-84
2023/11/13 10:39:49;;;;;;;24.70;3.20;;;;;;;12.50;100.00;98591.31;5046364;28;20025;-85
2023/11/13 10:42:22;;;;;;;21.42;3.40;;;;;;;13.85;100.00;98585.91;5053643;28;20033;-85
2023/11/13 10:44:50;;;;;;;24.65;3.40;;;;;;;14.34;100.00;98566.19;5053655;28;20112;-85
2023/11/13 10:47:21;;;;;;;17.58;3.33;;;;;;;14.58;97.61;98597.56;5049641;28;20032;-87
2023/11/13 10:49:51;;;;;;;18.70;3.50;;;;;;;14.30;99.83;98585.63;5037732;28;20029;-86
2023/11/13 10:52:18;;;;;;;21.00;3.85;;;;;;;13.63;100.00;98595.88;5034190;28;20290;-86
2023/11/13 10:54:46;;;;;;;16.60;2.88;;;;;;;13.69;100.00;98582.28;5033431;28;20017;-87
2023/11/13 10:57:12;;;;;;;22.17;4.13;;;;;;;13.34;100.00;98592.72;5042127;28;20033;-86
2023/11/13 10:59:37;;;;;;;19.88;3.65;;;;;;;13.06;100.00;98613.53;5043693;28;20029;-87
2023/11/13 11:02:05;;;;;;;19.35;3.75;;;;;;;12.69;100.00;98609.31;5033569;28;20087;-85
2023/11/13 11:04:33;;;;;;;15.75;3.25;;;;;;;13.59;100.00;98617.06;5032883;28;20026;-85
2023/11/13 11:07:00;;;;;;;21.90;3.03;;;;;;;13.75;100.00;98608.56;5034794;28;20064;-86
2023/11/13 11:09:27;;;;;;;14.57;2.35;;;;;;;14.12;98.50;98611.69;5033368;28;20108;-87
2023/11/13 11:11:53;;;;;;;23.50;3.70;;;;;;;14.40;98.78;98603.66;5032842;28;20029;-86
2023/11/13 11:14:33;;;;;;;21.27;3.15;;;;;;;14.77;100.00;98608.47;5033000;28;20018;-86
2023/11/13 11:17:15;;;;;;;16.13;3.30;;;;;;;15.11;97.10;98643.91;5033476;28;20199;-85